KMER

Details ICAO KMER (MER)
Name Castle
Region United States
Timezone America/Los_Angeles (UTC-8.0)
Plans Departing 5
Arriving 6
Stats Elevation 191 ft / 58 m (AMSL)
Location 37.380480° -120.568189°
Runways 1
Magnetic Variation 13.113° E
Sunrise 2017-12-17 15:12:13 UTC / 2017-12-17 07:12:13 Local
Sunset 2017-12-18 00:47:37 UTC / 2017-12-17 16:47:37 Local
Advertisement - Login to hide

Runways

ID Width Length Bearing (true) Bearing (mag) Surface Threshold Offset Overrun Length
13 151 ft / 46 m 11,808 ft / 3,599 m 141.15° 128.04° Asphalt 0 ft / 0 m 1,001 ft / 305 m
31 151 ft / 46 m 11,808 ft / 3,599 m 321.17° 308.06° Asphalt 0 ft / 0 m 1,001 ft / 305 m

Approach Navaids

Runway Type Ident Frequency Range Bearing (true) Bearing (mag) Slope Elevation
31 Localiser IMER 109.50 MHz 18 nm / 33 km 321.15° 308.04° - 191 ft / 58 m (AMSL)
31 Glidescope IMER 109.50 MHz 10 nm / 19 km 321.16° 308.05° 3.00° 191 ft / 58 m (AMSL)

Map

Weather


0- 5 10 15 20 25 30 35+ Temperature / ° C

Clouds and Precipitation
Forecast for 2017-12-17 18:00 UTC. Updated an hour ago

Ground ~20,000 ft ~40,000 ft Winds

METAR

KMER 171745Z 00000KT 6SM BR SKC 10/00 A3007

TAF

TAF KMER 171723Z 1718/1818 VRB04KT P6SM SKC FM180900 00000KT 1 1/2SM BR SKC

Frequencies

Recorded 124.47 MHz ATIS
Ground 133.57 MHz GND
Approach 120.95 MHz NORCAL APP/DEP
Unicom 118.17 MHz CTAF
Tower 118.17 MHz TWR
Warning: Do not use this data for real-world aviation or navigation. No guarantee of current accuracy is given.